Bloomfield, California
Current Conditions -  °F | °C
As of 12:15 PM on Saturday 25 Oct 2014 (Local Time) from KO69 Reporting Station
Scattered Clouds Scattered Clouds  
Wind Chill: 68°   Ceiling: Unl
Heat Index: 68°   Visibility: 8mi
Dew Point: 55°   Wind: 14mph
Humidity: 64%   Direction: 230°SW
Pressure: 30.05"   Gusts: 23mph
Location:  38.2181°N, 122.773°W
Report Text: KO69 251915Z AUTO 23012G20KT 8SM SCT050 20/13 A3005 RMK AO1
Loading
Personal Weather Stations






























Interactive Weather Map
Tropical Storm Tracking
New forecast layout! Learn more

10-Day Weather Forecast

Advertisements
Track Severe Weather on mobile